createdAt,value
2018-01-19T00:00:50.338Z,0
2018-01-19T00:01:52.040Z,0
2018-01-19T00:02:55.188Z,0
2018-01-19T00:03:56.896Z,0
2018-01-19T00:04:58.944Z,0
2018-01-19T00:06:00.667Z,0
2018-01-19T00:07:02.395Z,0
2018-01-19T00:08:04.320Z,0
2018-01-19T00:09:06.451Z,0
2018-01-19T00:10:08.214Z,0
2018-01-19T00:11:09.930Z,0
2018-01-19T00:12:12.032Z,0
2018-01-19T00:13:14.821Z,0
2018-01-19T00:14:16.931Z,0
2018-01-19T00:15:19.024Z,0
2018-01-19T00:16:20.959Z,0
2018-01-19T00:17:22.681Z,0
2018-01-19T00:18:24.398Z,0
2018-01-19T00:19:26.475Z,0
2018-01-19T00:20:28.364Z,0
2018-01-19T00:21:30.043Z,0
2018-01-19T00:22:31.767Z,0
2018-01-19T00:23:33.575Z,0
2018-01-19T00:24:35.249Z,0
2018-01-19T00:25:37.025Z,0
2018-01-19T00:26:38.809Z,0
2018-01-19T00:27:40.504Z,0
2018-01-19T00:28:42.565Z,0
2018-01-19T00:29:44.589Z,0
2018-01-19T00:30:46.255Z,0
2018-01-19T00:31:47.989Z,0
2018-01-19T00:32:49.670Z,0
2018-01-19T00:33:51.494Z,0
2018-01-19T00:34:53.501Z,0
2018-01-19T00:35:56.288Z,0
2018-01-19T00:36:58.016Z,0
2018-01-19T00:37:59.701Z,0
2018-01-19T00:39:01.474Z,0
2018-01-19T00:40:03.298Z,0
2018-01-19T00:41:05.188Z,0
2018-01-19T00:42:06.874Z,0
2018-01-19T00:43:08.667Z,0
2018-01-19T00:44:10.379Z,0
2018-01-19T00:45:12.087Z,0
2018-01-19T00:46:13.883Z,0
2018-01-19T00:47:15.932Z,0
2018-01-19T00:48:17.596Z,0
2018-01-19T00:49:19.598Z,0
2018-01-19T00:50:21.476Z,0
2018-01-19T00:51:23.589Z,0
2018-01-19T00:52:25.452Z,0
2018-01-19T00:53:27.386Z,0
2018-01-19T00:54:29.093Z,0
2018-01-19T00:55:31.126Z,0
2018-01-19T00:56:33.194Z,0
2018-01-19T00:57:35.000Z,0
2018-01-19T00:58:36.707Z,0
2018-01-19T00:59:38.398Z,0
2018-01-19T01:00:40.093Z,0
2018-01-19T01:01:41.808Z,0
2018-01-19T01:02:43.645Z,0
2018-01-19T01:03:45.419Z,0
2018-01-19T01:04:47.188Z,0
2018-01-19T01:05:49.094Z,0
2018-01-19T01:06:51.269Z,0
2018-01-19T01:07:53.337Z,0
2018-01-19T01:08:55.430Z,0
2018-01-19T01:09:57.152Z,0
2018-01-19T01:10:58.892Z,0
2018-01-19T01:12:00.990Z,0
2018-01-19T01:13:03.057Z,0
2018-01-19T01:14:04.899Z,0
2018-01-19T01:15:06.995Z,0
2018-01-19T01:16:09.133Z,0
2018-01-19T01:17:11.282Z,0
2018-01-19T01:18:13.354Z,0
2018-01-19T01:19:15.328Z,0
2018-01-19T01:20:17.211Z,0
2018-01-19T01:21:19.310Z,0
2018-01-19T01:22:21.390Z,0
2018-01-19T01:23:23.613Z,0
2018-01-19T01:24:25.402Z,0
2018-01-19T01:25:27.102Z,0
2018-01-19T01:26:29.064Z,0
2018-01-19T01:27:30.862Z,0
2018-01-19T01:28:32.809Z,0
2018-01-19T01:29:34.592Z,0
2018-01-19T01:30:36.333Z,0
2018-01-19T01:31:38.212Z,0
2018-01-19T01:32:39.934Z,0
2018-01-19T01:33:42.009Z,0
2018-01-19T01:34:44.108Z,0
2018-01-19T01:35:46.055Z,0
2018-01-19T01:36:47.796Z,0
2018-01-19T01:37:49.712Z,0
2018-01-19T01:38:51.479Z,0
2018-01-19T01:39:53.181Z,0
2018-01-19T01:40:55.367Z,0
2018-01-19T01:41:57.361Z,0
2018-01-19T01:42:59.070Z,0
2018-01-19T01:44:01.088Z,0
2018-01-19T01:45:02.911Z,0
2018-01-19T01:46:04.716Z,0
2018-01-19T01:47:06.432Z,0
2018-01-19T01:48:08.899Z,0
2018-01-19T01:49:10.898Z,0
2018-01-19T01:50:13.032Z,0
2018-01-19T01:51:15.079Z,0
2018-01-19T01:52:16.849Z,0
2018-01-19T01:53:18.896Z,0
2018-01-19T01:54:20.676Z,0
2018-01-19T01:55:22.428Z,0
2018-01-19T01:56:24.534Z,0
2018-01-19T01:57:26.265Z,0
2018-01-19T01:58:28.830Z,0
2018-01-19T01:59:30.633Z,0
2018-01-19T02:00:32.454Z,0
2018-01-19T02:01:34.598Z,0
2018-01-19T02:02:36.770Z,0
2018-01-19T02:03:38.839Z,0
2018-01-19T02:04:40.773Z,0
2018-01-19T02:05:42.534Z,0
2018-01-19T02:06:44.703Z,0
2018-01-19T02:07:46.769Z,0
2018-01-19T02:08:48.840Z,0
2018-01-19T02:09:50.586Z,0
2018-01-19T02:10:52.521Z,0
2018-01-19T02:11:54.251Z,0
2018-01-19T02:12:55.944Z,0
2018-01-19T02:13:57.645Z,0
2018-01-19T02:14:59.340Z,0
2018-01-19T02:16:01.335Z,0
2018-01-19T02:17:03.108Z,0
2018-01-19T02:18:04.852Z,0
2018-01-19T02:19:06.580Z,0
2018-01-19T02:20:08.295Z,0
2018-01-19T02:21:09.976Z,0
2018-01-19T02:22:11.826Z,0
2018-01-19T02:23:13.557Z,0
2018-01-19T02:24:15.219Z,0
2018-01-19T02:25:16.910Z,0
2018-01-19T02:26:18.645Z,0
2018-01-19T02:27:20.325Z,0
2018-01-19T02:28:22.030Z,0
2018-01-19T02:29:23.736Z,0
2018-01-19T02:30:25.408Z,0
2018-01-19T02:31:27.058Z,0
2018-01-19T02:32:28.862Z,0
2018-01-19T02:33:30.712Z,0
2018-01-19T02:34:32.630Z,0
2018-01-19T02:35:34.614Z,0
2018-01-19T02:36:36.549Z,0
2018-01-19T02:37:39.476Z,0
2018-01-19T02:38:41.257Z,0
2018-01-19T02:39:43.223Z,0
2018-01-19T02:40:45.048Z,0
2018-01-19T02:41:46.960Z,0
2018-01-19T02:42:48.668Z,0
2018-01-19T02:43:50.414Z,0
2018-01-19T02:44:52.125Z,0
2018-01-19T02:45:53.836Z,0
2018-01-19T02:46:55.662Z,0
2018-01-19T02:47:57.467Z,0
2018-01-19T02:48:59.148Z,0
2018-01-19T02:50:00.849Z,0
2018-01-19T02:51:02.679Z,0
2018-01-19T02:52:04.627Z,0
2018-01-19T02:53:06.428Z,0
2018-01-19T02:54:08.192Z,0
2018-01-19T02:55:10.142Z,0
2018-01-19T02:56:11.860Z,0
2018-01-19T02:57:13.680Z,0
2018-01-19T02:58:15.349Z,0
2018-01-19T02:59:17.058Z,0
2018-01-19T03:00:19.032Z,0
2018-01-19T03:01:20.770Z,0
2018-01-19T03:02:22.452Z,0
2018-01-19T03:03:24.326Z,0
2018-01-19T03:04:26.166Z,0
2018-01-19T03:05:27.890Z,0
2018-01-19T03:06:29.756Z,0
2018-01-19T03:07:31.510Z,0
2018-01-19T03:08:33.289Z,0
2018-01-19T03:09:35.246Z,0
2018-01-19T03:10:37.212Z,0
2018-01-19T03:11:39.153Z,0
2018-01-19T03:12:41.027Z,0
2018-01-19T03:13:42.718Z,0
2018-01-19T03:14:44.424Z,0
2018-01-19T03:15:46.160Z,0
2018-01-19T03:16:47.858Z,0
2018-01-19T03:17:49.562Z,0
2018-01-19T03:18:51.298Z,0
2018-01-19T03:19:52.957Z,0
2018-01-19T03:20:54.761Z,0
2018-01-19T03:21:56.464Z,0
2018-01-19T03:22:58.173Z,0
2018-01-19T03:23:59.854Z,0
2018-01-19T03:25:01.566Z,0
2018-01-19T03:26:03.192Z,0
2018-01-19T03:27:04.844Z,0
2018-01-19T03:28:06.521Z,0
2018-01-19T03:29:08.144Z,0
2018-01-19T03:30:09.816Z,0
2018-01-19T03:31:11.641Z,0
2018-01-19T03:32:13.278Z,0
2018-01-19T03:33:15.212Z,0
2018-01-19T03:34:17.042Z,0
2018-01-19T03:35:19.170Z,0
2018-01-19T03:36:20.790Z,0
2018-01-19T03:37:22.840Z,0
2018-01-19T03:38:24.514Z,0
2018-01-19T03:39:26.338Z,0
2018-01-19T03:40:28.058Z,0
2018-01-19T03:41:29.758Z,0
2018-01-19T03:42:31.432Z,0
2018-01-19T03:43:33.100Z,0
2018-01-19T03:44:34.791Z,0
2018-01-19T03:45:36.476Z,0
2018-01-19T03:46:38.614Z,0
2018-01-19T03:47:40.298Z,0
2018-01-19T03:48:42.157Z,0
2018-01-19T03:49:43.965Z,0
2018-01-19T03:50:45.953Z,0
2018-01-19T03:51:48.148Z,0
2018-01-19T03:52:49.874Z,0
2018-01-19T03:53:51.996Z,0
2018-01-19T03:54:54.093Z,0
2018-01-19T03:55:56.845Z,0
2018-01-19T03:56:58.916Z,0
2018-01-19T03:58:00.615Z,0
2018-01-19T03:59:02.332Z,0
2018-01-19T04:00:04.483Z,0
2018-01-19T04:01:06.628Z,0
2018-01-19T04:02:08.331Z,0
2018-01-19T04:03:10.460Z,0
2018-01-19T04:04:12.215Z,0
2018-01-19T04:05:13.902Z,0
2018-01-19T04:06:15.595Z,0
2018-01-19T04:07:17.791Z,0
2018-01-19T04:08:19.522Z,0
2018-01-19T04:09:21.513Z,0
2018-01-19T04:10:23.470Z,0
2018-01-19T04:11:25.649Z,0
2018-01-19T04:12:27.731Z,0
2018-01-19T04:13:29.750Z,0
2018-01-19T04:14:31.578Z,0
2018-01-19T04:15:33.333Z,0
2018-01-19T04:16:35.119Z,0
2018-01-19T04:17:37.210Z,0
2018-01-19T04:18:39.159Z,0
2018-01-19T04:19:41.345Z,0
2018-01-19T04:20:43.505Z,0
2018-01-19T04:21:45.594Z,0
2018-01-19T04:22:47.348Z,0
2018-01-19T04:23:49.464Z,0
2018-01-19T04:24:51.249Z,0
2018-01-19T04:25:53.443Z,0
2018-01-19T04:26:55.239Z,0
2018-01-19T04:27:57.292Z,0
2018-01-19T04:28:59.314Z,0
2018-01-19T04:30:01.395Z,0
2018-01-19T04:31:03.602Z,0
2018-01-19T04:32:05.605Z,0
2018-01-19T04:33:07.792Z,0
2018-01-19T04:34:09.818Z,0
2018-01-19T04:35:11.931Z,0
2018-01-19T04:36:13.662Z,0
2018-01-19T04:37:15.736Z,0
2018-01-19T04:38:17.783Z,0
2018-01-19T04:39:19.816Z,0
2018-01-19T04:40:21.907Z,0
2018-01-19T04:41:23.814Z,0
2018-01-19T04:42:25.803Z,0
2018-01-19T04:43:27.526Z,0
2018-01-19T04:44:29.443Z,0
2018-01-19T04:45:31.129Z,0
2018-01-19T04:46:32.861Z,0
2018-01-19T04:47:34.656Z,0
2018-01-19T04:48:36.846Z,0
2018-01-19T04:49:39.077Z,0
2018-01-19T04:50:41.221Z,0
2018-01-19T04:51:43.353Z,0
2018-01-19T04:52:45.304Z,0
2018-01-19T04:53:47.439Z,0
2018-01-19T04:54:49.581Z,0
2018-01-19T04:55:51.806Z,0
2018-01-19T04:56:53.755Z,0
2018-01-19T04:57:55.763Z,0
2018-01-19T04:58:57.942Z,0
2018-01-19T04:59:59.630Z,0
2018-01-19T05:01:01.353Z,0
2018-01-19T05:02:03.520Z,0
2018-01-19T05:03:05.700Z,0
2018-01-19T05:04:07.835Z,0
2018-01-19T05:05:09.518Z,0
2018-01-19T05:06:11.656Z,0
2018-01-19T05:07:13.303Z,0
2018-01-19T05:08:15.166Z,0
2018-01-19T05:09:16.853Z,0
2018-01-19T05:10:18.808Z,0
2018-01-19T05:11:20.908Z,0
2018-01-19T05:12:22.699Z,0
2018-01-19T05:13:24.587Z,0
2018-01-19T05:14:26.760Z,0
2018-01-19T05:15:28.873Z,0
2018-01-19T05:16:31.050Z,0
2018-01-19T05:17:33.138Z,0
2018-01-19T05:18:34.854Z,0
2018-01-19T05:19:37.015Z,0
2018-01-19T05:20:38.727Z,0
2018-01-19T05:21:40.734Z,0
2018-01-19T05:22:42.794Z,0
2018-01-19T05:23:44.477Z,0
2018-01-19T05:24:46.147Z,0
2018-01-19T05:25:47.816Z,0
2018-01-19T05:26:49.470Z,0
2018-01-19T05:27:51.119Z,0
2018-01-19T05:28:52.757Z,0
2018-01-19T05:29:54.469Z,0
2018-01-19T05:30:56.123Z,0
2018-01-19T05:31:57.760Z,0
2018-01-19T05:32:59.408Z,0
2018-01-19T05:34:01.061Z,0
2018-01-19T05:35:02.764Z,0
2018-01-19T05:36:04.838Z,0
2018-01-19T05:37:06.731Z,0
2018-01-19T05:38:08.368Z,0
2018-01-19T05:39:10.426Z,0
2018-01-19T05:40:12.536Z,0
2018-01-19T05:41:14.386Z,0
2018-01-19T05:42:17.475Z,0
2018-01-19T05:43:19.495Z,0
2018-01-19T05:44:21.858Z,0
2018-01-19T05:45:23.897Z,0
2018-01-19T05:46:25.509Z,0
2018-01-19T05:47:27.144Z,0
2018-01-19T05:48:28.855Z,0
2018-01-19T05:49:30.568Z,0
2018-01-19T05:50:32.262Z,0
2018-01-19T05:51:33.889Z,0
2018-01-19T05:52:36.197Z,0
2018-01-19T05:53:38.098Z,0
2018-01-19T05:54:39.754Z,0
2018-01-19T05:55:41.437Z,0
2018-01-19T05:56:43.102Z,0
2018-01-19T05:57:44.788Z,0
2018-01-19T05:58:46.480Z,0
2018-01-19T05:59:48.125Z,0
2018-01-19T06:00:49.799Z,0
2018-01-19T06:01:51.419Z,0
2018-01-19T06:02:53.076Z,0
2018-01-19T06:03:54.776Z,0
2018-01-19T06:04:56.397Z,0
2018-01-19T06:05:58.014Z,0
2018-01-19T06:07:00.051Z,0
2018-01-19T06:08:02.007Z,0
2018-01-19T06:09:03.644Z,0
2018-01-19T06:10:05.283Z,0
2018-01-19T06:11:07.196Z,0
2018-01-19T06:12:08.834Z,0
2018-01-19T06:13:10.474Z,0
2018-01-19T06:14:12.087Z,0
2018-01-19T06:15:13.731Z,0
2018-01-19T06:16:15.345Z,0
2018-01-19T06:17:17.003Z,0
2018-01-19T06:18:18.659Z,0
2018-01-19T06:19:20.314Z,0
2018-01-19T06:20:21.951Z,0
2018-01-19T06:21:23.614Z,0
2018-01-19T06:22:25.221Z,0
2018-01-19T06:23:26.888Z,0
2018-01-19T06:24:28.532Z,0
2018-01-19T06:25:30.148Z,0
2018-01-19T06:26:31.763Z,0
2018-01-19T06:27:33.410Z,0
2018-01-19T06:28:35.123Z,0
2018-01-19T06:29:36.757Z,0
2018-01-19T06:30:38.668Z,0
2018-01-19T06:31:40.399Z,0
2018-01-19T06:32:42.044Z,0
2018-01-19T06:33:43.759Z,0
2018-01-19T06:34:45.529Z,0
2018-01-19T06:35:47.393Z,0
2018-01-19T06:36:49.137Z,0
2018-01-19T06:37:51.235Z,0
2018-01-19T06:38:53.089Z,0
2018-01-19T06:39:55.464Z,0
2018-01-19T06:40:58.048Z,0
2018-01-19T06:42:00.237Z,0
2018-01-19T06:43:02.251Z,0
2018-01-19T06:44:04.161Z,0
2018-01-19T06:45:06.102Z,0
2018-01-19T06:46:08.045Z,0
2018-01-19T06:47:09.743Z,0
2018-01-19T06:48:11.469Z,0
2018-01-19T06:49:13.192Z,0
2018-01-19T06:50:14.815Z,0
2018-01-19T06:51:16.434Z,0
2018-01-19T06:52:18.053Z,0
2018-01-19T06:53:19.794Z,0
2018-01-19T06:54:21.476Z,0
2018-01-19T06:55:23.176Z,0
2018-01-19T06:56:24.792Z,0
2018-01-19T06:57:26.591Z,0
2018-01-19T06:58:28.301Z,0
2018-01-19T06:59:29.948Z,0
2018-01-19T07:00:31.581Z,0
2018-01-19T07:01:33.263Z,0
2018-01-19T07:02:34.880Z,0
2018-01-19T07:03:36.511Z,0
2018-01-19T07:04:38.181Z,0
2018-01-19T07:05:39.858Z,0
2018-01-19T07:06:41.669Z,0
2018-01-19T07:07:43.373Z,0
2018-01-19T07:08:45.156Z,0
2018-01-19T07:09:46.891Z,0
2018-01-19T07:10:48.607Z,0
2018-01-19T07:11:50.328Z,0
2018-01-19T07:12:52.037Z,0
2018-01-19T07:13:53.862Z,0
2018-01-19T07:14:55.518Z,0
2018-01-19T07:15:57.220Z,0
2018-01-19T07:16:58.908Z,0
2018-01-19T07:18:00.588Z,0
2018-01-19T07:19:02.213Z,0
2018-01-19T07:20:04.032Z,0
2018-01-19T07:21:05.847Z,0
2018-01-19T07:22:07.483Z,0
2018-01-19T07:23:09.163Z,0
2018-01-19T07:24:10.780Z,0
2018-01-19T07:25:12.461Z,0
2018-01-19T07:26:14.107Z,0
2018-01-19T07:27:15.757Z,0
2018-01-19T07:28:17.452Z,0
2018-01-19T07:29:19.100Z,0
2018-01-19T07:30:20.834Z,0
2018-01-19T07:31:22.510Z,0
2018-01-19T07:32:24.198Z,0
2018-01-19T07:33:26.150Z,0
2018-01-19T07:34:28.089Z,0
2018-01-19T07:35:29.738Z,0
2018-01-19T07:36:31.580Z,0
2018-01-19T07:37:33.246Z,0
2018-01-19T07:38:35.129Z,0
2018-01-19T07:39:36.871Z,0
2018-01-19T07:40:38.552Z,0
2018-01-19T07:41:40.233Z,0
2018-01-19T07:42:41.941Z,0
2018-01-19T07:43:43.659Z,0
2018-01-19T07:44:45.528Z,0
2018-01-19T07:45:47.275Z,0
2018-01-19T07:46:48.992Z,5
2018-01-19T07:47:50.792Z,5
2018-01-19T07:48:52.506Z,5
2018-01-19T07:49:54.253Z,0
2018-01-19T07:50:55.906Z,0
2018-01-19T07:51:57.622Z,0
2018-01-19T07:52:59.563Z,5
2018-01-19T07:54:01.232Z,5
2018-01-19T07:55:03.458Z,5
2018-01-19T07:56:05.122Z,5
2018-01-19T07:57:06.789Z,5
2018-01-19T07:58:08.450Z,0
2018-01-19T07:59:10.363Z,0
2018-01-19T08:00:11.989Z,0
2018-01-19T08:01:13.634Z,0
2018-01-19T08:02:15.314Z,5
2018-01-19T08:03:17.162Z,5
2018-01-19T08:04:18.964Z,5
2018-01-19T08:05:21.968Z,5
2018-01-19T08:06:24.975Z,5
2018-01-19T08:07:26.656Z,5
2018-01-19T08:08:28.367Z,10
2018-01-19T08:09:29.981Z,10
2018-01-19T08:10:31.687Z,10
2018-01-19T08:11:33.512Z,10
2018-01-19T08:12:35.205Z,10
2018-01-19T08:13:36.877Z,5
2018-01-19T08:14:38.491Z,5
2018-01-19T08:15:40.112Z,5
2018-01-19T08:16:41.752Z,5
2018-01-19T08:17:43.459Z,5
2018-01-19T08:18:45.124Z,5
2018-01-19T08:19:46.814Z,5
2018-01-19T08:20:48.439Z,5
2018-01-19T08:21:50.113Z,5
2018-01-19T08:22:52.016Z,5
2018-01-19T08:23:53.784Z,5
2018-01-19T08:24:55.557Z,10
2018-01-19T08:25:57.240Z,10
2018-01-19T08:26:59.071Z,15
2018-01-19T08:28:01.364Z,15
2018-01-19T08:29:03.613Z,20
2018-01-19T08:30:05.259Z,20
2018-01-19T08:31:06.884Z,15
2018-01-19T08:32:08.524Z,25
2018-01-19T08:33:10.587Z,30
2018-01-19T08:34:12.136Z,30
2018-01-19T08:35:15.062Z,25
2018-01-19T08:36:17.152Z,25
2018-01-19T08:37:19.054Z,30
2018-01-19T08:38:20.848Z,35
2018-01-19T08:39:22.462Z,30
2018-01-19T08:40:24.090Z,35
2018-01-19T08:41:26.073Z,35
2018-01-19T08:42:27.708Z,35
2018-01-19T08:43:29.375Z,30
2018-01-19T08:44:30.994Z,30
2018-01-19T08:45:32.732Z,45
2018-01-19T08:46:34.480Z,60
2018-01-19T08:47:36.097Z,70
2018-01-19T08:48:37.713Z,65
2018-01-19T08:49:39.410Z,50
2018-01-19T08:50:41.178Z,35
2018-01-19T08:51:43.116Z,25
2018-01-19T08:52:44.822Z,30
2018-01-19T08:53:46.500Z,35
2018-01-19T08:54:48.423Z,50
2018-01-19T08:55:50.099Z,45
2018-01-19T08:56:52.058Z,40
2018-01-19T08:57:54.191Z,25
2018-01-19T08:58:56.398Z,30
2018-01-19T08:59:58.532Z,30
2018-01-19T09:01:00.531Z,30
2018-01-19T09:02:02.583Z,45
2018-01-19T09:03:04.232Z,50
2018-01-19T09:04:05.986Z,50
2018-01-19T09:05:07.876Z,35
2018-01-19T09:06:09.791Z,40
2018-01-19T09:07:11.438Z,55
2018-01-19T09:08:13.128Z,45
2018-01-19T09:09:14.757Z,55
2018-01-19T09:10:16.729Z,70
2018-01-19T09:11:18.409Z,90
2018-01-19T09:12:20.360Z,110
2018-01-19T09:13:22.111Z,100
2018-01-19T09:14:24.096Z,105
2018-01-19T09:15:26.696Z,90
2018-01-19T09:16:28.423Z,75
2018-01-19T09:17:30.055Z,95
2018-01-19T09:18:31.775Z,70
2018-01-19T09:19:33.830Z,65
2018-01-19T09:20:35.739Z,65
2018-01-19T09:21:37.418Z,70
2018-01-19T09:22:39.211Z,70
2018-01-19T09:23:40.841Z,65
2018-01-19T09:24:42.610Z,60
2018-01-19T09:25:44.805Z,55
2018-01-19T09:26:46.879Z,45
2018-01-19T09:27:54.656Z,50
2018-01-19T09:28:56.189Z,65
2018-01-19T09:29:57.919Z,65
2018-01-19T09:30:59.613Z,80
2018-01-19T09:32:01.701Z,80
2018-01-19T09:33:03.914Z,85
2018-01-19T09:34:06.081Z,80
2018-01-19T09:35:08.124Z,75
2018-01-19T09:36:10.407Z,65
2018-01-19T09:37:12.104Z,65
2018-01-19T09:38:13.775Z,70
2018-01-19T09:39:15.500Z,75
2018-01-19T09:40:17.217Z,80
2018-01-19T09:41:18.874Z,75
2018-01-19T09:42:20.597Z,95
2018-01-19T09:43:22.324Z,120
2018-01-19T09:44:24.061Z,125
2018-01-19T09:45:25.901Z,125
2018-01-19T09:46:27.561Z,110
2018-01-19T09:47:29.607Z,110
2018-01-19T09:48:31.322Z,105
2018-01-19T09:49:33.083Z,120
2018-01-19T09:50:34.774Z,85
2018-01-19T09:51:36.397Z,100
2018-01-19T09:52:38.059Z,145
2018-01-19T09:53:39.787Z,155
2018-01-19T09:54:41.948Z,100
2018-01-19T09:55:43.623Z,75
2018-01-19T09:56:45.345Z,65
2018-01-19T09:57:47.149Z,90
2018-01-19T09:58:49.184Z,145
2018-01-19T09:59:50.886Z,115
2018-01-19T10:00:52.895Z,65
2018-01-19T10:01:54.778Z,80
2018-01-19T10:02:56.849Z,130
2018-01-19T10:03:58.539Z,195
2018-01-19T10:05:00.170Z,150
2018-01-19T10:06:01.856Z,190
2018-01-19T10:07:03.506Z,180
2018-01-19T10:08:05.273Z,120
2018-01-19T10:09:07.009Z,105
2018-01-19T10:10:08.725Z,135
2018-01-19T10:11:10.714Z,145
2018-01-19T10:12:12.474Z,120
2018-01-19T10:13:14.474Z,100
2018-01-19T10:14:16.469Z,140
2018-01-19T10:15:18.553Z,215
2018-01-19T10:16:20.505Z,160
2018-01-19T10:17:22.584Z,110
2018-01-19T10:18:24.602Z,135
2018-01-19T10:19:26.681Z,150
2018-01-19T10:20:28.737Z,130
2018-01-19T10:21:30.726Z,155
2018-01-19T10:22:32.849Z,95
2018-01-19T10:23:34.986Z,85
2018-01-19T10:24:36.730Z,100
2018-01-19T10:25:38.818Z,110
2018-01-19T10:26:41.009Z,90
2018-01-19T10:27:43.112Z,70
2018-01-19T10:28:44.857Z,70
2018-01-19T10:29:46.867Z,50
2018-01-19T10:30:48.889Z,50
2018-01-19T10:31:50.894Z,65
2018-01-19T10:32:52.906Z,105
2018-01-19T10:33:55.003Z,80
2018-01-19T10:34:57.069Z,100
2018-01-19T10:35:59.153Z,120
2018-01-19T10:37:01.181Z,115
2018-01-19T10:38:03.312Z,155
2018-01-19T10:39:05.238Z,165
2018-01-19T10:40:07.305Z,175
2018-01-19T10:41:09.361Z,175
2018-01-19T10:42:11.137Z,170
2018-01-19T10:43:12.792Z,215
2018-01-19T10:44:14.520Z,235
2018-01-19T10:45:16.241Z,245
2018-01-19T10:46:18.006Z,220
2018-01-19T10:47:20.155Z,165
2018-01-19T10:48:22.264Z,195
2018-01-19T10:49:23.927Z,280
2018-01-19T10:50:25.744Z,285
2018-01-19T10:51:27.842Z,320
2018-01-19T10:52:29.532Z,380
2018-01-19T10:53:31.256Z,730
2018-01-19T10:54:33.038Z,335
2018-01-19T10:55:34.765Z,310
2018-01-19T10:56:36.404Z,315
2018-01-19T10:57:38.469Z,430
2018-01-19T10:58:40.561Z,280
2018-01-19T10:59:42.506Z,190
2018-01-19T11:00:44.768Z,165
2018-01-19T11:01:46.917Z,155
2018-01-19T11:02:49.472Z,155
2018-01-19T11:03:51.405Z,155
2018-01-19T11:04:53.708Z,150
2018-01-19T11:05:55.813Z,125
2018-01-19T11:06:57.573Z,110
2018-01-19T11:07:59.248Z,100
2018-01-19T11:09:00.941Z,85
2018-01-19T11:10:02.639Z,90
2018-01-19T11:11:04.424Z,105
2018-01-19T11:12:06.212Z,115
2018-01-19T11:13:08.105Z,120
2018-01-19T11:14:09.818Z,105
2018-01-19T11:15:11.503Z,170
2018-01-19T11:16:13.557Z,170
2018-01-19T11:17:15.248Z,245
2018-01-19T11:18:17.227Z,270
2018-01-19T11:19:19.214Z,210
2018-01-19T11:20:20.942Z,205
2018-01-19T11:21:22.990Z,310
2018-01-19T11:22:25.386Z,255
2018-01-19T11:23:27.923Z,465
2018-01-19T11:24:29.691Z,175
2018-01-19T11:25:31.382Z,195
2018-01-19T11:26:33.085Z,130
2018-01-19T11:27:35.918Z,80
2018-01-19T11:28:37.951Z,180
2018-01-19T11:29:39.659Z,325
2018-01-19T11:30:41.427Z,195
2018-01-19T11:31:43.091Z,170
2018-01-19T11:32:44.788Z,240
2018-01-19T11:33:46.802Z,175
2018-01-19T11:34:49.026Z,245
2018-01-19T11:35:51.226Z,200
2018-01-19T11:36:52.928Z,135
2018-01-19T11:37:55.018Z,150
2018-01-19T11:38:57.075Z,85
2018-01-19T11:39:58.819Z,80
2018-01-19T11:41:00.814Z,65
2018-01-19T11:42:02.996Z,75
2018-01-19T11:43:05.533Z,100
2018-01-19T11:44:07.571Z,120
2018-01-19T11:45:09.795Z,180
2018-01-19T11:46:11.845Z,165
2018-01-19T11:47:13.913Z,95
2018-01-19T11:48:15.895Z,115
2018-01-19T11:49:17.933Z,110
2018-01-19T11:50:19.690Z,100
2018-01-19T11:51:21.795Z,115
2018-01-19T11:52:23.593Z,130
2018-01-19T11:53:25.674Z,120
2018-01-19T11:54:27.664Z,120
2018-01-19T11:55:29.704Z,120
2018-01-19T11:56:31.770Z,115
2018-01-19T11:57:33.969Z,110
2018-01-19T11:58:36.033Z,155
2018-01-19T11:59:38.212Z,235
2018-01-19T12:00:40.273Z,305
2018-01-19T12:01:42.037Z,225
2018-01-19T12:02:44.158Z,165
2018-01-19T12:03:46.163Z,140
2018-01-19T12:04:48.278Z,110
2018-01-19T12:05:50.389Z,125
2018-01-19T12:06:52.560Z,180
2018-01-19T12:07:54.255Z,190
2018-01-19T12:08:56.028Z,125
2018-01-19T12:09:57.680Z,120
2018-01-19T12:10:59.384Z,150
2018-01-19T12:12:01.083Z,115
2018-01-19T12:13:03.239Z,170
2018-01-19T12:14:05.262Z,230
2018-01-19T12:15:07.407Z,245
2018-01-19T12:16:09.376Z,240
2018-01-19T12:17:11.419Z,140
2018-01-19T12:18:13.128Z,125
2018-01-19T12:19:15.297Z,120
2018-01-19T12:20:17.282Z,115
2018-01-19T12:21:19.077Z,115
2018-01-19T12:22:20.804Z,195
2018-01-19T12:23:22.738Z,250
2018-01-19T12:24:24.818Z,220
2018-01-19T12:25:27.046Z,135
2018-01-19T12:26:29.156Z,145
2018-01-19T12:27:31.319Z,140
2018-01-19T12:28:32.998Z,180
2018-01-19T12:29:34.748Z,140
2018-01-19T12:30:36.450Z,130
2018-01-19T12:31:38.842Z,175
2018-01-19T12:32:41.043Z,125
2018-01-19T12:33:43.063Z,75
2018-01-19T12:34:45.070Z,65
2018-01-19T12:35:47.141Z,65
2018-01-19T12:36:49.225Z,140
2018-01-19T12:37:51.149Z,220
2018-01-19T12:38:53.224Z,140
2018-01-19T12:39:55.267Z,80
2018-01-19T12:40:57.377Z,140
2018-01-19T12:41:59.407Z,200
2018-01-19T12:43:01.710Z,245
2018-01-19T12:44:03.737Z,375
2018-01-19T12:45:05.810Z,435
2018-01-19T12:46:07.842Z,285
2018-01-19T12:47:09.910Z,255
2018-01-19T12:48:11.952Z,230
2018-01-19T12:49:13.741Z,225
2018-01-19T12:50:15.797Z,215
2018-01-19T12:51:17.989Z,230
2018-01-19T12:52:20.261Z,210
2018-01-19T12:53:22.277Z,220
2018-01-19T12:54:24.387Z,240
2018-01-19T12:55:26.636Z,205
2018-01-19T12:56:29.556Z,135
2018-01-19T12:57:31.717Z,110
2018-01-19T12:58:33.536Z,80
2018-01-19T12:59:35.235Z,65
2018-01-19T13:00:36.843Z,55
2018-01-19T13:01:38.470Z,50
2018-01-19T13:02:40.118Z,50
2018-01-19T13:03:41.736Z,45
2018-01-19T13:04:43.453Z,50
2018-01-19T13:05:45.078Z,50
2018-01-19T13:06:46.732Z,45
2018-01-19T13:07:48.366Z,50
2018-01-19T13:08:49.998Z,40
2018-01-19T13:09:51.641Z,40
2018-01-19T13:10:53.443Z,45
2018-01-19T13:11:55.388Z,40
2018-01-19T13:12:57.328Z,45
2018-01-19T13:13:59.022Z,45
2018-01-19T13:15:00.659Z,50
2018-01-19T13:16:02.419Z,50
2018-01-19T13:17:04.056Z,50
2018-01-19T13:18:05.727Z,55
2018-01-19T13:19:07.343Z,60
2018-01-19T13:20:08.968Z,65
2018-01-19T13:21:10.629Z,70
2018-01-19T13:22:12.250Z,70
2018-01-19T13:23:13.865Z,60
2018-01-19T13:24:15.483Z,60
2018-01-19T13:25:17.113Z,60
2018-01-19T13:26:18.795Z,80
2018-01-19T13:27:20.543Z,100
2018-01-19T13:28:22.237Z,140
2018-01-19T13:29:24.220Z,175
2018-01-19T13:30:26.046Z,185
2018-01-19T13:31:27.701Z,155
2018-01-19T13:32:29.365Z,150
2018-01-19T13:33:31.339Z,195
2018-01-19T13:34:32.962Z,170
2018-01-19T13:35:34.628Z,155
2018-01-19T13:36:36.346Z,195
2018-01-19T13:37:38.303Z,225
2018-01-19T13:38:40.182Z,235
2018-01-19T13:39:41.899Z,200
2018-01-19T13:40:43.656Z,135
2018-01-19T13:41:45.275Z,95
2018-01-19T13:42:46.889Z,100
2018-01-19T13:43:48.510Z,105
2018-01-19T13:44:50.174Z,100
2018-01-19T13:45:51.792Z,115
2018-01-19T13:46:53.443Z,150
2018-01-19T13:47:55.180Z,145
2018-01-19T13:48:56.764Z,130
2018-01-19T13:49:58.462Z,95
2018-01-19T13:51:00.284Z,75
2018-01-19T13:52:01.942Z,65
2018-01-19T13:53:03.574Z,60
2018-01-19T13:54:05.232Z,60
2018-01-19T13:55:07.176Z,85
2018-01-19T13:56:09.067Z,110
2018-01-19T13:57:10.816Z,115
2018-01-19T13:58:12.446Z,120
2018-01-19T13:59:14.219Z,130
2018-01-19T14:00:15.846Z,150
2018-01-19T14:01:17.551Z,165
2018-01-19T14:02:19.246Z,170
2018-01-19T14:03:20.893Z,160
2018-01-19T14:04:22.552Z,170
2018-01-19T14:05:24.359Z,190
2018-01-19T14:06:26.028Z,185
2018-01-19T14:07:27.659Z,180
2018-01-19T14:08:29.401Z,175
2018-01-19T14:09:31.031Z,170
2018-01-19T14:10:32.682Z,195
2018-01-19T14:11:34.434Z,225
2018-01-19T14:12:36.069Z,205
2018-01-19T14:13:37.808Z,170
2018-01-19T14:14:39.535Z,155
2018-01-19T14:15:41.451Z,135
2018-01-19T14:16:43.092Z,145
2018-01-19T14:17:45.137Z,175
2018-01-19T14:18:46.946Z,185
2018-01-19T14:19:48.857Z,175
2018-01-19T14:20:50.695Z,130
2018-01-19T14:21:52.451Z,115
2018-01-19T14:22:54.308Z,105
2018-01-19T14:23:55.979Z,115
2018-01-19T14:24:57.640Z,125
2018-01-19T14:25:59.413Z,130
2018-01-19T14:27:01.053Z,145
2018-01-19T14:28:02.711Z,140
2018-01-19T14:29:04.386Z,150
2018-01-19T14:30:06.034Z,160
2018-01-19T14:31:07.675Z,160
2018-01-19T14:32:09.421Z,155
2018-01-19T14:33:11.045Z,155
2018-01-19T14:34:12.765Z,155
2018-01-19T14:35:14.658Z,150
2018-01-19T14:36:17.302Z,145
2018-01-19T14:37:18.987Z,135
2018-01-19T14:38:21.169Z,140
2018-01-19T14:39:22.799Z,145
2018-01-19T14:40:27.519Z,145
2018-01-19T14:41:29.187Z,150
2018-01-19T14:42:32.371Z,145
2018-01-19T14:43:37.132Z,140
2018-01-19T14:44:43.346Z,135
2018-01-19T14:45:49.399Z,135
2018-01-19T14:46:58.385Z,125
2018-01-19T14:48:00.959Z,125
2018-01-19T14:49:04.186Z,120
2018-01-19T14:50:11.310Z,110
2018-01-19T14:51:14.668Z,100
2018-01-19T14:52:16.687Z,90